Latest Weather Observations for Badgerys Creek

IDN60801

Issued at 9:03 am EST Sunday 28 May 2017 (issued every 30 minutes, with the page automatically refreshed every 10 minutes)

About weather observations | Map of weather stations | Latest weather observations for NSW | Other Formats
Station Details ID: 067108 Name: BADGERYS CREEK AWS Lat: -33.90 Lon: 150.73 Height: 81.2 m
Data from the previous 72 hours. | See also: Recent months at Badgerys Creek
Date/Time
EST
Temp
°C
App
Temp
°C
Dew
Point
°C
Rel
Hum
%
Delta-T
°C
Wind Press
QNH
hPa
Press
MSL
hPa
Rain since
9am
mm
Dir  Spd
km/h
Gust
km/h
Spd
kts
Gust
kts
28/09:00am 8.2 7.8 8.2 100 0.0 CALM 0 0 0 0 - - -
28/08:30am 7.3 6.7 7.3 100 0.0 CALM 0 0 0 0 1013.5 1013.5 0.0
28/08:00am 6.8 6.1 6.8 100 0.0 CALM 0 4 0 2 1013.6 1013.6 0.0
28/07:30am 6.0 5.1 6.0 100 0.0 CALM 0 6 0 3 1013.7 1013.7 0.0
28/07:00am 5.5 4.1 5.5 100 0.0 NNW 2 6 1 3 1013.6 1013.6 0.0
28/06:30am 5.8 4.5 5.8 100 0.0 NNW 2 6 1 3 1013.4 1013.4 0.0
28/06:00am 6.2 4.0 6.2 100 0.0 NNW 7 9 4 5 1013.3 1013.3 0.0
28/05:30am 5.9 4.6 5.9 100 0.0 NNW 2 7 1 4 1013.5 1013.5 0.0
28/05:00am 5.9 3.8 5.9 100 0.0 NNW 6 6 3 3 1013.5 1013.5 0.0
28/04:30am 6.0 5.1 6.0 100 0.0 CALM 0 6 0 3 1013.6 1013.6 0.0
28/04:00am 5.4 4.4 5.4 100 0.0 CALM 0 0 0 0 1013.7 1013.7 0.0
28/03:30am 6.6 5.8 6.6 100 0.0 CALM 0 0 0 0 1014.0 1014.0 0.0
28/03:00am 5.8 4.1 5.8 100 0.0 NNW 4 6 2 3 1014.4 1014.4 0.0
28/02:30am 6.0 3.9 5.9 99 0.0 NNW 6 7 3 4 1014.9 1014.9 0.0
28/02:00am 6.1 4.8 6.0 99 0.0 NNW 2 4 1 2 1015.2 1015.2 0.0
28/01:30am 7.7 6.0 7.6 99 0.0 NNW 6 6 3 3 1015.3 1015.3 0.0
28/01:00am 7.3 5.3 7.2 99 0.0 N 7 7 4 4 1015.6 1015.6 0.0
28/12:30am 7.5 6.5 7.4 99 0.0 NNE 2 4 1 2 1015.9 1015.9 0.0
28/12:00am 7.6 6.3 7.5 99 0.0 NNE 4 6 2 3 1016.3 1016.3 0.0
 
Date/Time
EST
Temp
°C
App
Temp
°C
Dew
Point
°C
Rel
Hum
%
Delta-T
°C
Wind Press
QNH
hPa
Press
MSL
hPa
Rain since
9am
mm
Dir  Spd
km/h
Gust
km/h
Spd
kts
Gust
kts
27/11:30pm 8.7 8.0 8.6 99 0.0 NNE 2 4 1 2 1016.5 1016.5 0.0
27/11:00pm 8.1 7.6 8.0 99 0.0 CALM 0 0 0 0 1017.0 1017.0 0.0
27/10:30pm 9.6 8.8 9.5 99 0.0 NNE 4 4 2 2 1017.1 1017.1 0.0
27/10:00pm 10.2 9.5 10.1 99 0.1 NNE 4 4 2 2 1017.3 1017.3 0.0
27/09:30pm 10.1 10.2 10.0 99 0.1 CALM 0 6 0 3 1017.5 1017.4 0.0
27/09:00pm 10.6 10.8 10.4 99 0.1 CALM 0 0 0 0 1017.5 1017.4 0.0
27/08:30pm 11.6 12.0 11.3 98 0.2 CALM 0 0 0 0 1017.6 1017.5 0.0
27/08:00pm 11.3 11.6 11.0 98 0.2 CALM 0 0 0 0 1017.7 1017.6 0.0
27/07:30pm 12.0 12.3 10.9 93 0.6 CALM 0 0 0 0 1017.7 1017.6 0.0
27/07:00pm 12.6 12.9 10.8 89 0.9 CALM 0 0 0 0 1017.8 1017.7 0.0
27/06:30pm 13.8 14.1 10.8 82 1.6 CALM 0 0 0 0 1017.7 1017.6 0.0
27/06:00pm 14.5 14.3 10.5 77 2.1 NNE 2 4 1 2 1017.5 1017.4 0.0
27/05:30pm 16.4 15.9 10.9 70 3.0 NNE 4 6 2 3 1017.2 1017.2 0.0
27/05:00pm 16.8 16.4 11.1 69 3.1 NNE 4 6 2 3 1017.2 1017.2 0.0
27/04:30pm 18.1 17.7 11.0 63 3.9 NNE 4 6 2 3 1017.0 1017.0 0.0
27/04:00pm 19.0 18.0 11.1 60 4.3 N 7 13 4 7 1017.2 1017.2 0.0
27/03:30pm 19.6 18.3 11.4 59 4.5 NNE 9 15 5 8 1017.3 1017.3 0.0
27/03:00pm 20.0 18.8 11.5 58 4.7 N 9 13 5 7 1017.5 1017.4 0.0
27/02:30pm 20.0 19.0 11.0 56 4.9 NNE 7 15 4 8 1017.5 1017.4 0.0
27/02:00pm 20.3 19.6 11.5 57 4.9 NNE 6 11 3 6 1017.8 1017.7 0.0
27/01:30pm 20.0 19.1 11.2 57 4.8 N 7 15 4 8 1018.3 1018.2 0.0
27/01:00pm 19.9 19.1 11.7 59 4.5 NE 7 17 4 9 1018.6 1018.5 0.0
27/12:30pm 19.4 18.8 12.4 64 3.9 NE 7 13 4 7 1019.3 1019.2 0.0
27/12:00pm 19.9 19.4 12.7 63 4.1 NE 7 11 4 6 1019.9 1019.8 0.0
27/11:30am 18.1 18.2 11.4 65 3.7 SSW 2 7 1 4 1020.5 1020.4 0.0
27/11:00am 18.7 18.9 12.0 65 3.7 SSW 2 9 1 5 1021.2 1021.1 0.0
27/10:30am 17.1 17.7 11.8 71 2.9 CALM 0 6 0 3 1021.8 1021.8 0.0
27/10:00am 15.4 15.3 12.2 81 1.7 SSE 4 6 2 3 1022.0 1022.0 0.0
27/09:30am 14.4 14.7 12.1 86 1.2 SSE 2 6 1 3 1022.1 1022.1 0.0
27/09:00am 12.8 12.5 11.5 92 0.7 SSE 4 6 2 3 1022.2 1022.2 0.0
27/08:30am 11.7 12.2 11.7 100 0.0 CALM 0 6 0 3 1022.3 1022.3 0.0
27/08:00am 9.2 9.0 9.2 100 0.0 CALM 0 0 0 0 1022.2 1022.2 0.0
27/07:30am 8.5 8.2 8.5 100 0.0 CALM 0 2 0 1 1022.3 1022.3 0.0
27/07:00am 8.5 7.0 8.5 100 0.0 SE 6 6 3 3 1022.1 1022.1 0.0
27/06:30am 8.4 8.0 8.4 100 0.0 CALM 0 0 0 0 1022.0 1022.0 0.0
27/06:00am 8.4 8.0 8.4 100 0.0 CALM 0 0 0 0 1021.6 1021.5 0.0
27/05:30am 9.2 9.0 9.2 100 0.0 CALM 0 0 0 0 1021.5 1021.4 0.0
27/05:00am 8.8 7.8 8.8 100 0.0 ESE 4 6 2 3 1021.3 1021.2 0.0
27/04:30am 8.8 7.8 8.8 100 0.0 SSE 4 6 2 3 1021.2 1021.1 0.0
27/04:00am 8.6 7.9 8.6 100 0.0 SSE 2 6 1 3 1021.3 1021.2 0.0
27/03:30am 9.2 7.9 9.2 100 0.0 SSE 6 7 3 4 1021.3 1021.2 0.0
27/03:00am 9.4 8.2 9.4 100 0.0 SSE 6 7 3 4 1021.6 1021.5 0.0
27/02:30am 9.7 8.5 9.7 100 0.0 SSE 6 7 3 4 1021.8 1021.8 0.0
27/02:00am 9.7 8.5 9.7 100 0.0 SSE 6 9 3 5 1021.9 1021.9 0.0
27/01:30am 9.4 8.2 9.4 100 0.0 SSE 6 9 3 5 1021.9 1021.9 0.0
27/01:00am 9.5 8.1 9.4 99 0.0 SSE 7 9 4 5 1022.0 1022.0 0.0
27/12:30am 10.0 8.9 9.9 99 0.1 SSE 6 7 3 4 1022.2 1022.2 0.0
27/12:00am 9.9 8.6 9.8 99 0.1 SSE 7 7 4 4 1022.3 1022.3 0.0
 
Date/Time
EST
Temp
°C
App
Temp
°C
Dew
Point
°C
Rel
Hum
%
Delta-T
°C
Wind Press
QNH
hPa
Press
MSL
hPa
Rain since
9am
mm
Dir  Spd
km/h
Gust
km/h
Spd
kts
Gust
kts
26/11:30pm 9.9 8.2 9.8 99 0.1 SSE 9 11 5 6 1022.3 1022.3 0.0
26/11:00pm 10.5 9.3 10.3 99 0.1 SSE 7 7 4 4 1022.2 1022.2 0.0
26/10:30pm 10.9 10.0 10.7 99 0.1 SSE 6 7 3 4 1022.4 1022.4 0.0
26/10:00pm 11.0 9.9 10.8 99 0.1 SSE 7 9 4 5 1022.4 1022.4 0.0
26/09:30pm 10.9 9.8 10.7 99 0.1 SSE 7 9 4 5 1022.5 1022.5 0.0
26/09:00pm 10.8 9.7 10.5 98 0.2 SSE 7 9 4 5 1022.4 1022.4 0.0
26/08:30pm 11.0 9.8 10.4 96 0.3 SSE 7 9 4 5 1022.3 1022.3 0.0
26/08:00pm 11.4 10.3 10.5 94 0.5 SSE 7 7 4 4 1022.2 1022.2 0.0
26/07:30pm 11.4 10.1 10.0 91 0.7 SSE 7 7 4 4 1021.9 1021.9 0.0
26/07:00pm 12.7 12.2 10.6 87 1.1 SSE 4 6 2 3 1021.7 1021.7 0.0
26/06:30pm 11.9 10.5 9.6 86 1.2 SSE 7 7 4 4 1021.4 1021.3 0.0
26/06:00pm 14.4 14.1 10.0 75 2.3 SE 2 2 1 1 1021.4 1021.3 0.0
26/05:30pm 15.1 14.4 10.1 72 2.6 SE 4 6 2 3 1021.0 1020.9 0.0
26/05:00pm 15.7 14.4 9.8 68 3.1 ESE 7 11 4 6 1020.7 1020.6 0.0
26/04:30pm 16.7 14.7 10.1 65 3.5 SE 11 15 6 8 1020.4 1020.3 0.0
26/04:00pm 17.2 15.2 10.1 63 3.8 SE 11 20 6 11 1020.2 1020.1 0.0
26/03:30pm 18.1 17.5 10.5 61 4.1 SE 4 7 2 4 1020.0 1019.9 0.0
26/03:00pm 18.2 17.1 9.8 58 4.4 ESE 6 7 3 4 1019.8 1019.7 0.0
26/02:30pm 18.8 18.0 9.6 55 4.9 S 4 6 2 3 1019.8 1019.7 0.0
26/02:00pm 18.9 16.6 9.1 53 5.1 SSW 11 17 6 9 1020.0 1019.9 0.0
26/01:30pm 19.6 18.5 10.0 54 5.2 SSW 6 11 3 6 1020.1 1020.0 0.0
26/01:00pm 18.9 17.0 9.1 53 5.1 S 9 15 5 8 1020.4 1020.3 0.0
26/12:30pm 18.7 17.4 9.8 56 4.7 SSE 7 11 4 6 1020.6 1020.5 0.0
26/12:00pm 18.3 16.4 9.1 55 4.8 SW 9 22 5 12 1020.9 1020.8 0.0
26/11:30am 17.8 15.0 8.6 55 4.8 SSW 13 19 7 10 1021.4 1021.3 0.0
26/11:00am 17.1 14.4 8.8 58 4.3 SW 13 19 7 10 1021.8 1021.8 0.0
26/10:30am 16.0 14.0 8.7 62 3.7 WSW 9 13 5 7 1022.0 1022.0 0.0
26/10:00am 15.0 12.9 8.3 64 3.4 SW 9 13 5 7 1022.1 1022.1 0.0
26/09:30am 13.8 13.2 8.8 72 2.5 SSE 2 4 1 2 1022.2 1022.2 0.0
26/09:00am 12.3 11.1 8.2 76 2.0 SSE 4 7 2 4 1022.2 1022.2 0.0
26/08:30am 10.8 10.4 9.9 94 0.5 SSE 2 4 1 2 1022.0 1022.0 0.0
26/08:00am 9.1 8.8 8.6 97 0.2 CALM 0 2 0 1 1021.7 1021.7 0.0
26/07:30am 8.0 6.8 7.9 99 0.0 SSE 4 4 2 2 1021.5 1021.4 0.0
26/07:00am 7.8 6.5 7.7 99 0.0 SSE 4 4 2 2 1021.3 1021.2 0.0
26/06:30am 7.6 6.3 7.5 99 0.0 SSE 4 6 2 3 1021.0 1020.9 0.0
26/06:00am 6.9 6.2 6.8 99 0.0 CALM 0 2 0 1 1020.7 1020.6 0.0
26/05:30am 7.4 5.4 7.3 99 0.0 NNW 7 13 4 7 1020.3 1020.2 0.0
26/05:00am 6.8 4.7 6.8 100 0.0 WNW 7 13 4 7 1019.7 1019.6 0.0
26/04:30am 5.8 4.1 5.8 100 0.0 WNW 4 6 2 3 1019.7 1019.6 0.0
26/04:00am 6.3 5.1 6.3 100 0.0 WNW 2 4 1 2 1019.4 1019.3 0.0
26/03:30am 5.5 3.3 5.4 99 0.0 WNW 6 6 3 3 1019.2 1019.1 0.0
26/03:00am 6.8 6.0 6.7 99 0.0 CALM 0 0 0 0 1019.4 1019.3 0.0
26/02:30am 5.3 3.1 5.2 99 0.0 WNW 6 9 3 5 1019.5 1019.4 0.0
26/02:00am 7.0 6.3 7.0 100 0.0 CALM 0 0 0 0 1019.5 1019.4 0.0
26/01:30am 6.8 6.0 6.7 99 0.0 CALM 0 0 0 0 1019.4 1019.3 0.0
26/01:00am 7.3 6.7 7.2 99 0.0 CALM 0 0 0 0 1019.5 1019.4 0.0
26/12:30am 7.7 6.0 7.6 99 0.0 WNW 6 7 3 4 1019.6 1019.5 0.0
26/12:00am 7.8 6.1 7.7 99 0.0 WNW 6 7 3 4 1019.8 1019.7 0.0
 
Date/Time
EST
Temp
°C
App
Temp
°C
Dew
Point
°C
Rel
Hum
%
Delta-T
°C
Wind Press
QNH
hPa
Press
MSL
hPa
Rain since
9am
mm
Dir  Spd
km/h
Gust
km/h
Spd
kts
Gust
kts
25/11:30pm 8.4 7.3 8.3 99 0.0 WNW 4 6 2 3 1020.0 1019.9 0.0
25/11:00pm 8.6 7.1 8.5 99 0.0 WNW 6 6 3 3 1020.3 1020.2 0.0
25/10:30pm 8.2 6.6 8.1 99 0.0 WNW 6 7 3 4 1020.2 1020.1 0.0
25/10:00pm 8.2 6.8 7.4 95 0.4 WNW 4 7 2 4 1020.4 1020.3 0.0
25/09:30pm 8.6 7.7 7.7 94 0.4 WNW 2 7 1 4 1020.4 1020.3 0.0
25/09:00pm 9.6 9.1 7.9 89 0.8 CALM 0 2 0 1 1020.1 1020.0 0.0
25/08:30pm 9.9 8.6 7.7 86 1.1 WNW 4 6 2 3 1020.2 1020.1 0.0
25/08:00pm 10.6 8.8 7.3 80 1.6 WNW 6 7 3 4 1020.2 1020.1 0.0
25/07:30pm 11.4 9.8 7.9 79 1.7 NNW 6 6 3 3 1020.1 1020.0 0.0
25/07:00pm 11.7 10.0 7.6 76 2.0 NNW 6 7 3 4 1019.9 1019.8 0.0
25/06:30pm 12.8 10.7 6.8 67 2.9 NNW 7 7 4 4 1019.8 1019.7 0.0
25/06:00pm 14.2 11.9 7.3 63 3.4 N 9 9 5 5 1019.6 1019.5 0.0
25/05:30pm 14.9 13.2 7.5 61 3.7 NNE 6 7 3 4 1019.3 1019.2 0.0
25/05:00pm 16.5 14.6 6.9 53 4.7 NNE 6 6 3 3 1019.1 1019.0 0.0
25/04:30pm 17.6 16.2 7.4 51 5.1 NNE 4 6 2 3 1018.9 1018.8 0.0
25/04:00pm 18.2 16.3 7.6 50 5.4 NNE 7 11 4 6 1018.8 1018.7 0.0
25/03:30pm 19.0 16.6 7.1 46 6.0 NNE 9 13 5 7 1018.7 1018.6 0.0
25/03:00pm 19.6 17.9 7.4 45 6.2 NNE 6 9 3 5 1018.8 1018.7 0.0
25/02:30pm 19.8 18.5 7.5 45 6.3 NE 4 11 2 6 1018.8 1018.7 0.0
25/02:00pm 19.6 17.7 7.4 45 6.2 ENE 7 11 4 6 1019.0 1018.9 0.0
25/01:30pm 18.9 17.0 6.7 45 6.1 ESE 6 9 3 5 1019.2 1019.1 0.0
25/01:00pm 19.4 17.8 6.2 42 6.6 SSW 4 6 2 3 1019.4 1019.3 0.0
25/12:30pm 19.2 17.5 7.6 47 5.9 SE 6 7 3 4 1019.8 1019.7 0.0
25/12:00pm 18.5 17.2 7.6 49 5.5 W 4 7 2 4 1020.3 1020.2 0.0
25/11:30am 17.9 16.2 8.2 53 5.0 SW 7 11 4 6 1020.8 1020.7 0.0
25/11:00am 17.4 15.8 8.0 54 4.8 SW 6 11 3 6 1021.2 1021.1 0.0
25/10:30am 16.4 14.6 7.9 57 4.3 SW 7 13 4 7 1021.6 1021.5 0.0
25/10:00am 15.5 13.8 7.5 59 4.0 SW 6 11 3 6 1021.7 1021.7 0.0
25/09:30am 14.4 13.3 8.4 67 3.0 SSE 4 7 2 4 1021.7 1021.7 0.0

Other Formats:

Comma delimited format used in spreadsheet applications
http://www.bom.gov.au/fwo/IDN60801/IDN60801.94752.axf

JavaScript Object Notation format (JSON) in row-major order
http://www.bom.gov.au/fwo/IDN60801/IDN60801.94752.json